KFOE/FOE METAR and TAF weather

Enter ICAO airport designator
Station Type Date Time Source
KFOE METAR 2020/09/25 07:53 UTC NOAA

KFOE 250753Z AUTO 17007KT 10SM CLR 18/16 A2984 RMK AO2 SLP095 T01830161


Station Type Date Time Source
KFOE Decoded METAR 2020/09/25 07:53 UTC NOAA

FORBES FIELD, KS, United States (KFOE) 38-56N 95-39W 320M
Sep 25, 2020 - 03:53 AM EDT / 2020.09.25 0753 UTC
Wind: from the S (170 degrees) at 8 MPH (7 KT):0
Visibility: 10 mile(s):0
Sky conditions: clear
Temperature: 64.9 F (18.3 C)
Dew Point: 61.0 F (16.1 C)
Relative Humidity: 86%
Pressure (altimeter): 29.84 in. Hg (1010 hPa)
ob: KFOE 250753Z AUTO 17007KT 10SM CLR 18/16 A2984 RMK AO2 SLP095 T01830161
cycle: 8

Station Type Date Time Source
KFOE TAF 2020/09/25 06:22 UTC NOAA

TAF KFOE 250520Z 2506/2606 18006KT P6SM SKC
FM251400 19013G20KT P6SM SKC

Example: see airport list